sensor_id;sensor_type;location;lat;lon;timestamp;P1;durP1;ratioP1;P2;durP2;ratioP2
21705;SDS011;11014;53.076;18.208;2024-01-06T00:02:08;15.27;;;8.32;;
21705;SDS011;11014;53.076;18.208;2024-01-06T00:04:36;15.18;;;7.70;;
21705;SDS011;11014;53.076;18.208;2024-01-06T00:07:05;17.90;;;8.38;;
21705;SDS011;11014;53.076;18.208;2024-01-06T00:09:51;17.23;;;8.25;;
21705;SDS011;11014;53.076;18.208;2024-01-06T00:12:21;16.20;;;9.15;;
21705;SDS011;11014;53.076;18.208;2024-01-06T00:14:49;15.50;;;8.18;;
21705;SDS011;11014;53.076;18.208;2024-01-06T00:17:18;15.68;;;7.88;;
21705;SDS011;11014;53.076;18.208;2024-01-06T00:19:47;17.92;;;9.20;;
21705;SDS011;11014;53.076;18.208;2024-01-06T00:22:19;16.38;;;8.38;;
21705;SDS011;11014;53.076;18.208;2024-01-06T00:24:48;16.17;;;8.63;;
21705;SDS011;11014;53.076;18.208;2024-01-06T00:27:17;17.75;;;9.05;;
21705;SDS011;11014;53.076;18.208;2024-01-06T00:29:45;22.02;;;10.07;;
21705;SDS011;11014;53.076;18.208;2024-01-06T00:32:15;19.92;;;10.02;;
21705;SDS011;11014;53.076;18.208;2024-01-06T00:34:44;19.35;;;9.55;;
21705;SDS011;11014;53.076;18.208;2024-01-06T00:37:13;20.25;;;10.05;;
21705;SDS011;11014;53.076;18.208;2024-01-06T00:39:42;22.67;;;10.50;;
21705;SDS011;11014;53.076;18.208;2024-01-06T00:42:11;22.30;;;10.32;;
21705;SDS011;11014;53.076;18.208;2024-01-06T00:44:40;21.40;;;10.70;;
21705;SDS011;11014;53.076;18.208;2024-01-06T00:47:08;22.15;;;10.40;;
21705;SDS011;11014;53.076;18.208;2024-01-06T00:49:37;36.05;;;13.57;;
21705;SDS011;11014;53.076;18.208;2024-01-06T00:52:06;35.28;;;13.10;;
21705;SDS011;11014;53.076;18.208;2024-01-06T00:54:35;37.03;;;13.40;;
21705;SDS011;11014;53.076;18.208;2024-01-06T00:57:04;36.47;;;13.38;;
21705;SDS011;11014;53.076;18.208;2024-01-06T00:59:33;37.72;;;13.63;;
21705;SDS011;11014;53.076;18.208;2024-01-06T01:02:01;42.60;;;15.20;;
21705;SDS011;11014;53.076;18.208;2024-01-06T01:04:30;26.08;;;11.10;;
21705;SDS011;11014;53.076;18.208;2024-01-06T01:06:58;26.88;;;12.00;;
21705;SDS011;11014;53.076;18.208;2024-01-06T01:09:27;29.50;;;12.93;;
21705;SDS011;11014;53.076;18.208;2024-01-06T01:11:55;28.92;;;13.55;;
21705;SDS011;11014;53.076;18.208;2024-01-06T01:14:24;25.02;;;11.20;;
21705;SDS011;11014;53.076;18.208;2024-01-06T01:16:53;22.38;;;11.65;;
21705;SDS011;11014;53.076;18.208;2024-01-06T01:19:21;23.95;;;10.43;;
21705;SDS011;11014;53.076;18.208;2024-01-06T01:21:50;21.35;;;9.95;;
21705;SDS011;11014;53.076;18.208;2024-01-06T01:24:23;17.40;;;8.55;;
21705;SDS011;11014;53.076;18.208;2024-01-06T01:26:52;18.55;;;9.63;;
21705;SDS011;11014;53.076;18.208;2024-01-06T01:29:21;19.48;;;8.82;;
21705;SDS011;11014;53.076;18.208;2024-01-06T01:31:49;16.02;;;8.77;;
21705;SDS011;11014;53.076;18.208;2024-01-06T01:34:18;16.52;;;8.77;;
21705;SDS011;11014;53.076;18.208;2024-01-06T01:36:47;15.52;;;8.52;;
21705;SDS011;11014;53.076;18.208;2024-01-06T01:39:16;18.65;;;8.98;;
21705;SDS011;11014;53.076;18.208;2024-01-06T01:41:45;16.65;;;8.60;;
21705;SDS011;11014;53.076;18.208;2024-01-06T01:44:14;14.43;;;7.82;;
21705;SDS011;11014;53.076;18.208;2024-01-06T01:46:43;13.95;;;7.32;;
21705;SDS011;11014;53.076;18.208;2024-01-06T01:49:12;18.15;;;7.85;;
21705;SDS011;11014;53.076;18.208;2024-01-06T01:51:40;14.18;;;7.68;;
21705;SDS011;11014;53.076;18.208;2024-01-06T01:54:12;13.23;;;7.63;;
21705;SDS011;11014;53.076;18.208;2024-01-06T01:56:40;17.40;;;7.82;;
21705;SDS011;11014;53.076;18.208;2024-01-06T01:59:11;14.32;;;7.63;;
21705;SDS011;11014;53.076;18.208;2024-01-06T02:01:41;15.55;;;7.53;;
21705;SDS011;11014;53.076;18.208;2024-01-06T02:04:10;17.10;;;9.07;;
21705;SDS011;11014;53.076;18.208;2024-01-06T02:06:39;16.33;;;8.82;;
21705;SDS011;11014;53.076;18.208;2024-01-06T02:09:08;12.88;;;7.40;;
21705;SDS011;11014;53.076;18.208;2024-01-06T02:11:37;13.63;;;7.50;;
21705;SDS011;11014;53.076;18.208;2024-01-06T02:14:07;16.88;;;9.20;;
21705;SDS011;11014;53.076;18.208;2024-01-06T02:16:35;14.90;;;8.30;;
21705;SDS011;11014;53.076;18.208;2024-01-06T02:19:04;18.50;;;9.38;;
21705;SDS011;11014;53.076;18.208;2024-01-06T02:21:36;19.33;;;10.15;;
21705;SDS011;11014;53.076;18.208;2024-01-06T02:24:11;15.95;;;9.07;;
21705;SDS011;11014;53.076;18.208;2024-01-06T02:26:39;18.67;;;10.60;;
21705;SDS011;11014;53.076;18.208;2024-01-06T02:29:08;15.90;;;8.65;;
21705;SDS011;11014;53.076;18.208;2024-01-06T02:31:37;16.90;;;8.98;;
21705;SDS011;11014;53.076;18.208;2024-01-06T02:34:06;16.33;;;9.30;;
21705;SDS011;11014;53.076;18.208;2024-01-06T02:36:35;14.77;;;7.53;;
21705;SDS011;11014;53.076;18.208;2024-01-06T02:39:04;17.50;;;9.68;;
21705;SDS011;11014;53.076;18.208;2024-01-06T02:41:32;16.83;;;9.80;;
21705;SDS011;11014;53.076;18.208;2024-01-06T02:44:02;18.42;;;10.55;;
21705;SDS011;11014;53.076;18.208;2024-01-06T02:46:32;16.40;;;9.80;;
21705;SDS011;11014;53.076;18.208;2024-01-06T02:49:00;20.20;;;10.32;;
21705;SDS011;11014;53.076;18.208;2024-01-06T02:51:29;16.05;;;9.23;;
21705;SDS011;11014;53.076;18.208;2024-01-06T02:53:58;23.02;;;10.80;;
21705;SDS011;11014;53.076;18.208;2024-01-06T02:56:26;20.48;;;9.90;;
21705;SDS011;11014;53.076;18.208;2024-01-06T02:58:55;22.25;;;10.77;;
21705;SDS011;11014;53.076;18.208;2024-01-06T03:01:24;23.52;;;10.43;;
21705;SDS011;11014;53.076;18.208;2024-01-06T03:03:53;17.00;;;8.23;;
21705;SDS011;11014;53.076;18.208;2024-01-06T03:06:21;14.95;;;8.55;;
21705;SDS011;11014;53.076;18.208;2024-01-06T03:08:50;17.25;;;8.88;;
21705;SDS011;11014;53.076;18.208;2024-01-06T03:11:19;15.18;;;7.68;;
21705;SDS011;11014;53.076;18.208;2024-01-06T03:13:47;15.45;;;8.35;;
21705;SDS011;11014;53.076;18.208;2024-01-06T03:16:16;14.75;;;8.05;;
21705;SDS011;11014;53.076;18.208;2024-01-06T03:18:44;15.93;;;8.77;;
21705;SDS011;11014;53.076;18.208;2024-01-06T03:21:18;18.38;;;9.23;;
21705;SDS011;11014;53.076;18.208;2024-01-06T03:23:48;18.95;;;9.25;;
21705;SDS011;11014;53.076;18.208;2024-01-06T03:26:17;20.88;;;9.52;;
21705;SDS011;11014;53.076;18.208;2024-01-06T03:28:48;18.80;;;8.93;;
21705;SDS011;11014;53.076;18.208;2024-01-06T03:31:17;13.70;;;7.90;;
21705;SDS011;11014;53.076;18.208;2024-01-06T03:33:46;18.83;;;8.48;;
21705;SDS011;11014;53.076;18.208;2024-01-06T03:36:15;23.15;;;10.13;;
21705;SDS011;11014;53.076;18.208;2024-01-06T03:38:45;21.25;;;9.43;;
21705;SDS011;11014;53.076;18.208;2024-01-06T03:41:14;18.85;;;9.52;;
21705;SDS011;11014;53.076;18.208;2024-01-06T03:43:42;15.48;;;8.40;;
21705;SDS011;11014;53.076;18.208;2024-01-06T03:46:11;17.67;;;8.82;;
21705;SDS011;11014;53.076;18.208;2024-01-06T03:48:40;20.15;;;9.70;;
21705;SDS011;11014;53.076;18.208;2024-01-06T03:51:09;18.52;;;9.73;;
21705;SDS011;11014;53.076;18.208;2024-01-06T03:53:38;25.02;;;10.80;;
21705;SDS011;11014;53.076;18.208;2024-01-06T03:56:08;18.40;;;8.32;;
21705;SDS011;11014;53.076;18.208;2024-01-06T03:58:37;13.27;;;7.63;;
21705;SDS011;11014;53.076;18.208;2024-01-06T04:01:05;15.32;;;8.40;;
21705;SDS011;11014;53.076;18.208;2024-01-06T04:03:34;15.95;;;7.68;;
21705;SDS011;11014;53.076;18.208;2024-01-06T04:06:03;15.77;;;8.55;;
21705;SDS011;11014;53.076;18.208;2024-01-06T04:08:32;15.52;;;8.55;;
21705;SDS011;11014;53.076;18.208;2024-01-06T04:11:00;17.92;;;8.70;;
21705;SDS011;11014;53.076;18.208;2024-01-06T04:13:29;14.45;;;8.60;;
21705;SDS011;11014;53.076;18.208;2024-01-06T04:15:58;17.40;;;8.88;;
21705;SDS011;11014;53.076;18.208;2024-01-06T04:18:26;16.17;;;8.93;;
21705;SDS011;11014;53.076;18.208;2024-01-06T04:20:55;18.92;;;9.38;;
21705;SDS011;11014;53.076;18.208;2024-01-06T04:23:24;19.67;;;9.70;;
21705;SDS011;11014;53.076;18.208;2024-01-06T04:25:53;18.77;;;9.85;;
21705;SDS011;11014;53.076;18.208;2024-01-06T04:28:22;21.58;;;10.02;;
21705;SDS011;11014;53.076;18.208;2024-01-06T04:30:51;19.88;;;9.95;;
21705;SDS011;11014;53.076;18.208;2024-01-06T04:33:20;17.85;;;9.65;;
21705;SDS011;11014;53.076;18.208;2024-01-06T04:35:48;18.38;;;9.95;;
21705;SDS011;11014;53.076;18.208;2024-01-06T04:38:18;17.40;;;9.13;;
21705;SDS011;11014;53.076;18.208;2024-01-06T04:40:46;18.55;;;9.20;;
21705;SDS011;11014;53.076;18.208;2024-01-06T04:43:15;17.95;;;9.45;;
21705;SDS011;11014;53.076;18.208;2024-01-06T04:45:43;18.42;;;9.55;;
21705;SDS011;11014;53.076;18.208;2024-01-06T04:48:12;20.00;;;9.80;;
21705;SDS011;11014;53.076;18.208;2024-01-06T04:50:41;18.27;;;9.15;;
21705;SDS011;11014;53.076;18.208;2024-01-06T04:53:10;15.57;;;8.85;;
21705;SDS011;11014;53.076;18.208;2024-01-06T04:55:38;14.73;;;8.10;;
21705;SDS011;11014;53.076;18.208;2024-01-06T04:58:07;16.55;;;8.60;;
21705;SDS011;11014;53.076;18.208;2024-01-06T05:00:38;14.88;;;7.85;;
21705;SDS011;11014;53.076;18.208;2024-01-06T05:03:07;13.73;;;7.90;;
21705;SDS011;11014;53.076;18.208;2024-01-06T05:05:37;14.18;;;8.65;;
21705;SDS011;11014;53.076;18.208;2024-01-06T05:08:05;15.10;;;8.38;;
21705;SDS011;11014;53.076;18.208;2024-01-06T05:10:34;13.18;;;7.82;;
21705;SDS011;11014;53.076;18.208;2024-01-06T05:13:03;17.88;;;8.55;;
21705;SDS011;11014;53.076;18.208;2024-01-06T05:15:31;17.15;;;8.85;;
21705;SDS011;11014;53.076;18.208;2024-01-06T05:18:00;13.98;;;7.93;;
21705;SDS011;11014;53.076;18.208;2024-01-06T05:20:29;13.68;;;8.05;;
21705;SDS011;11014;53.076;18.208;2024-01-06T05:22:58;14.50;;;7.75;;
21705;SDS011;11014;53.076;18.208;2024-01-06T05:25:26;13.07;;;7.32;;
21705;SDS011;11014;53.076;18.208;2024-01-06T05:27:55;12.90;;;7.10;;
21705;SDS011;11014;53.076;18.208;2024-01-06T05:30:23;13.43;;;7.18;;
21705;SDS011;11014;53.076;18.208;2024-01-06T05:32:52;13.55;;;7.43;;
21705;SDS011;11014;53.076;18.208;2024-01-06T05:35:21;12.55;;;7.70;;
21705;SDS011;11014;53.076;18.208;2024-01-06T05:37:50;13.32;;;6.97;;
21705;SDS011;11014;53.076;18.208;2024-01-06T05:40:18;15.45;;;7.82;;
21705;SDS011;11014;53.076;18.208;2024-01-06T05:42:47;14.25;;;7.50;;
21705;SDS011;11014;53.076;18.208;2024-01-06T05:45:16;15.55;;;7.97;;
21705;SDS011;11014;53.076;18.208;2024-01-06T05:47:45;22.85;;;10.30;;
21705;SDS011;11014;53.076;18.208;2024-01-06T05:50:15;21.48;;;10.48;;
21705;SDS011;11014;53.076;18.208;2024-01-06T05:52:45;26.00;;;12.43;;
21705;SDS011;11014;53.076;18.208;2024-01-06T05:55:15;20.17;;;11.93;;
21705;SDS011;11014;53.076;18.208;2024-01-06T05:57:44;15.90;;;10.30;;
21705;SDS011;11014;53.076;18.208;2024-01-06T06:00:12;17.80;;;8.25;;
21705;SDS011;11014;53.076;18.208;2024-01-06T06:02:42;19.70;;;10.82;;
21705;SDS011;11014;53.076;18.208;2024-01-06T06:05:11;14.45;;;7.90;;
21705;SDS011;11014;53.076;18.208;2024-01-06T06:07:40;15.45;;;9.18;;
21705;SDS011;11014;53.076;18.208;2024-01-06T06:10:09;16.48;;;9.57;;
21705;SDS011;11014;53.076;18.208;2024-01-06T06:12:39;16.10;;;7.65;;
21705;SDS011;11014;53.076;18.208;2024-01-06T06:15:07;10.68;;;6.25;;
21705;SDS011;11014;53.076;18.208;2024-01-06T06:17:36;12.35;;;7.15;;
21705;SDS011;11014;53.076;18.208;2024-01-06T06:20:06;12.05;;;8.25;;
21705;SDS011;11014;53.076;18.208;2024-01-06T06:22:34;14.55;;;8.32;;
21705;SDS011;11014;53.076;18.208;2024-01-06T06:25:04;15.68;;;8.32;;
21705;SDS011;11014;53.076;18.208;2024-01-06T06:27:40;17.80;;;9.30;;
21705;SDS011;11014;53.076;18.208;2024-01-06T06:30:10;12.25;;;7.53;;
21705;SDS011;11014;53.076;18.208;2024-01-06T06:32:40;11.80;;;7.10;;
21705;SDS011;11014;53.076;18.208;2024-01-06T06:35:10;11.00;;;6.55;;
21705;SDS011;11014;53.076;18.208;2024-01-06T06:37:39;15.68;;;8.52;;
21705;SDS011;11014;53.076;18.208;2024-01-06T06:40:07;9.52;;;6.05;;
21705;SDS011;11014;53.076;18.208;2024-01-06T06:42:36;10.30;;;6.13;;
21705;SDS011;11014;53.076;18.208;2024-01-06T06:45:05;11.57;;;6.72;;
21705;SDS011;11014;53.076;18.208;2024-01-06T06:47:35;12.18;;;6.60;;
21705;SDS011;11014;53.076;18.208;2024-01-06T06:50:03;11.95;;;6.30;;
21705;SDS011;11014;53.076;18.208;2024-01-06T06:52:32;14.63;;;6.68;;
21705;SDS011;11014;53.076;18.208;2024-01-06T06:55:01;14.25;;;7.30;;
21705;SDS011;11014;53.076;18.208;2024-01-06T06:57:30;11.35;;;6.60;;
21705;SDS011;11014;53.076;18.208;2024-01-06T06:59:58;11.20;;;6.78;;
21705;SDS011;11014;53.076;18.208;2024-01-06T07:02:31;11.68;;;6.75;;
21705;SDS011;11014;53.076;18.208;2024-01-06T07:04:59;9.98;;;6.00;;
21705;SDS011;11014;53.076;18.208;2024-01-06T07:07:28;9.55;;;5.88;;
21705;SDS011;11014;53.076;18.208;2024-01-06T07:09:56;11.68;;;6.63;;
21705;SDS011;11014;53.076;18.208;2024-01-06T07:12:25;10.20;;;6.00;;
21705;SDS011;11014;53.076;18.208;2024-01-06T07:14:55;12.77;;;7.15;;
21705;SDS011;11014;53.076;18.208;2024-01-06T07:17:24;14.15;;;7.68;;
21705;SDS011;11014;53.076;18.208;2024-01-06T07:19:53;12.25;;;6.63;;
21705;SDS011;11014;53.076;18.208;2024-01-06T07:22:22;12.18;;;6.45;;
21705;SDS011;11014;53.076;18.208;2024-01-06T07:24:51;13.60;;;8.07;;
21705;SDS011;11014;53.076;18.208;2024-01-06T07:27:20;14.10;;;8.07;;
21705;SDS011;11014;53.076;18.208;2024-01-06T07:29:48;15.57;;;8.27;;
21705;SDS011;11014;53.076;18.208;2024-01-06T07:32:17;17.92;;;9.02;;
21705;SDS011;11014;53.076;18.208;2024-01-06T07:34:46;20.23;;;10.35;;
21705;SDS011;11014;53.076;18.208;2024-01-06T07:37:15;14.95;;;8.20;;
21705;SDS011;11014;53.076;18.208;2024-01-06T07:39:44;14.20;;;8.23;;
21705;SDS011;11014;53.076;18.208;2024-01-06T07:42:13;14.02;;;8.20;;
21705;SDS011;11014;53.076;18.208;2024-01-06T07:44:42;19.90;;;10.52;;
21705;SDS011;11014;53.076;18.208;2024-01-06T07:47:10;23.45;;;11.80;;
21705;SDS011;11014;53.076;18.208;2024-01-06T07:49:40;20.58;;;10.38;;
21705;SDS011;11014;53.076;18.208;2024-01-06T07:52:09;21.30;;;11.35;;
21705;SDS011;11014;53.076;18.208;2024-01-06T07:54:38;27.00;;;12.98;;
21705;SDS011;11014;53.076;18.208;2024-01-06T07:57:07;17.83;;;8.57;;
21705;SDS011;11014;53.076;18.208;2024-01-06T07:59:35;17.00;;;8.15;;
21705;SDS011;11014;53.076;18.208;2024-01-06T08:02:04;21.88;;;9.30;;
21705;SDS011;11014;53.076;18.208;2024-01-06T08:04:32;16.40;;;9.43;;
21705;SDS011;11014;53.076;18.208;2024-01-06T08:07:01;13.95;;;8.68;;
21705;SDS011;11014;53.076;18.208;2024-01-06T08:09:30;23.02;;;11.63;;
21705;SDS011;11014;53.076;18.208;2024-01-06T08:11:59;16.25;;;8.80;;
21705;SDS011;11014;53.076;18.208;2024-01-06T08:14:28;16.27;;;8.75;;
21705;SDS011;11014;53.076;18.208;2024-01-06T08:16:56;14.23;;;7.43;;
21705;SDS011;11014;53.076;18.208;2024-01-06T08:19:25;14.68;;;8.18;;
21705;SDS011;11014;53.076;18.208;2024-01-06T08:21:54;16.90;;;8.70;;
21705;SDS011;11014;53.076;18.208;2024-01-06T08:24:23;13.05;;;7.50;;
21705;SDS011;11014;53.076;18.208;2024-01-06T08:26:53;14.63;;;8.32;;
21705;SDS011;11014;53.076;18.208;2024-01-06T08:29:21;14.57;;;8.30;;
21705;SDS011;11014;53.076;18.208;2024-01-06T08:31:50;14.88;;;8.55;;
21705;SDS011;11014;53.076;18.208;2024-01-06T08:34:20;14.85;;;9.52;;
21705;SDS011;11014;53.076;18.208;2024-01-06T08:36:49;14.15;;;7.65;;
21705;SDS011;11014;53.076;18.208;2024-01-06T08:39:19;11.40;;;7.72;;
21705;SDS011;11014;53.076;18.208;2024-01-06T08:41:48;17.63;;;8.15;;
21705;SDS011;11014;53.076;18.208;2024-01-06T08:44:16;13.60;;;7.22;;
21705;SDS011;11014;53.076;18.208;2024-01-06T08:46:45;14.43;;;7.65;;
21705;SDS011;11014;53.076;18.208;2024-01-06T08:49:13;13.82;;;8.07;;
21705;SDS011;11014;53.076;18.208;2024-01-06T08:51:43;15.40;;;8.50;;
21705;SDS011;11014;53.076;18.208;2024-01-06T08:54:11;15.55;;;8.85;;
21705;SDS011;11014;53.076;18.208;2024-01-06T08:56:40;19.88;;;10.88;;
21705;SDS011;11014;53.076;18.208;2024-01-06T08:59:08;14.63;;;8.55;;
21705;SDS011;11014;53.076;18.208;2024-01-06T09:01:37;25.55;;;11.50;;
21705;SDS011;11014;53.076;18.208;2024-01-06T09:04:07;20.85;;;10.85;;
21705;SDS011;11014;53.076;18.208;2024-01-06T09:06:36;19.92;;;10.75;;
21705;SDS011;11014;53.076;18.208;2024-01-06T09:09:04;25.58;;;12.70;;
21705;SDS011;11014;53.076;18.208;2024-01-06T09:11:34;23.77;;;11.32;;
21705;SDS011;11014;53.076;18.208;2024-01-06T09:14:03;21.65;;;11.30;;
21705;SDS011;11014;53.076;18.208;2024-01-06T09:16:32;24.90;;;12.98;;
21705;SDS011;11014;53.076;18.208;2024-01-06T09:19:00;19.75;;;10.85;;
21705;SDS011;11014;53.076;18.208;2024-01-06T09:21:29;19.73;;;9.88;;
21705;SDS011;11014;53.076;18.208;2024-01-06T09:23:58;18.33;;;9.00;;
21705;SDS011;11014;53.076;18.208;2024-01-06T09:26:28;18.73;;;9.73;;
21705;SDS011;11014;53.076;18.208;2024-01-06T09:28:57;22.90;;;10.80;;
21705;SDS011;11014;53.076;18.208;2024-01-06T09:31:25;18.40;;;9.93;;
21705;SDS011;11014;53.076;18.208;2024-01-06T09:33:54;21.90;;;11.85;;
21705;SDS011;11014;53.076;18.208;2024-01-06T09:36:23;23.70;;;13.68;;
21705;SDS011;11014;53.076;18.208;2024-01-06T09:41:46;18.30;;;9.00;;
21705;SDS011;11014;53.076;18.208;2024-01-06T09:44:14;18.83;;;9.05;;
21705;SDS011;11014;53.076;18.208;2024-01-06T09:46:44;18.38;;;9.60;;
21705;SDS011;11014;53.076;18.208;2024-01-06T09:49:12;18.10;;;9.50;;
21705;SDS011;11014;53.076;18.208;2024-01-06T09:51:43;15.98;;;9.65;;
21705;SDS011;11014;53.076;18.208;2024-01-06T09:54:22;16.95;;;10.00;;
21705;SDS011;11014;53.076;18.208;2024-01-06T09:56:54;22.70;;;12.48;;
21705;SDS011;11014;53.076;18.208;2024-01-06T09:59:24;20.80;;;11.10;;
21705;SDS011;11014;53.076;18.208;2024-01-06T10:01:58;14.70;;;8.32;;
21705;SDS011;11014;53.076;18.208;2024-01-06T10:11:37;16.83;;;9.07;;
21705;SDS011;11014;53.076;18.208;2024-01-06T10:15:22;14.85;;;8.15;;
21705;SDS011;11014;53.076;18.208;2024-01-06T10:27:22;18.75;;;9.77;;
21705;SDS011;11014;53.076;18.208;2024-01-06T10:32:58;17.13;;;9.07;;
21705;SDS011;11014;53.076;18.208;2024-01-06T10:35:28;13.88;;;8.18;;
21705;SDS011;11014;53.076;18.208;2024-01-06T10:38:00;15.55;;;9.05;;
21705;SDS011;11014;53.076;18.208;2024-01-06T10:40:36;18.45;;;9.77;;
21705;SDS011;11014;53.076;18.208;2024-01-06T10:43:07;16.48;;;9.18;;
21705;SDS011;11014;53.076;18.208;2024-01-06T10:46:01;15.98;;;8.77;;
21705;SDS011;11014;53.076;18.208;2024-01-06T10:48:37;19.67;;;11.25;;
21705;SDS011;11014;53.076;18.208;2024-01-06T10:55:40;28.63;;;13.32;;
21705;SDS011;11014;53.076;18.208;2024-01-06T10:58:32;20.90;;;9.68;;
21705;SDS011;11014;53.076;18.208;2024-01-06T11:02:23;26.25;;;13.77;;
21705;SDS011;11014;53.076;18.208;2024-01-06T11:06:11;26.27;;;13.27;;
21705;SDS011;11014;53.076;18.208;2024-01-06T11:12:00;16.42;;;8.15;;
21705;SDS011;11014;53.076;18.208;2024-01-06T11:14:35;18.17;;;8.40;;
21705;SDS011;11014;53.076;18.208;2024-01-06T11:17:08;32.42;;;17.17;;
21705;SDS011;11014;53.076;18.208;2024-01-06T11:22:27;18.10;;;10.15;;
21705;SDS011;11014;53.076;18.208;2024-01-06T11:25:03;18.55;;;9.88;;
21705;SDS011;11014;53.076;18.208;2024-01-06T11:27:34;18.38;;;10.73;;
21705;SDS011;11014;53.076;18.208;2024-01-06T11:30:04;16.73;;;9.00;;
21705;SDS011;11014;53.076;18.208;2024-01-06T11:32:38;17.27;;;8.48;;
21705;SDS011;11014;53.076;18.208;2024-01-06T11:35:10;15.10;;;7.80;;
21705;SDS011;11014;53.076;18.208;2024-01-06T11:43:08;16.92;;;9.32;;
21705;SDS011;11014;53.076;18.208;2024-01-06T11:45:42;14.85;;;8.98;;
21705;SDS011;11014;53.076;18.208;2024-01-06T11:48:11;15.50;;;8.60;;
21705;SDS011;11014;53.076;18.208;2024-01-06T11:50:44;17.98;;;11.02;;
21705;SDS011;11014;53.076;18.208;2024-01-06T11:53:12;18.20;;;10.23;;
21705;SDS011;11014;53.076;18.208;2024-01-06T11:55:42;13.65;;;8.18;;
21705;SDS011;11014;53.076;18.208;2024-01-06T11:58:16;17.30;;;9.38;;
21705;SDS011;11014;53.076;18.208;2024-01-06T12:00:54;13.45;;;8.13;;
21705;SDS011;11014;53.076;18.208;2024-01-06T12:03:24;13.18;;;7.65;;
21705;SDS011;11014;53.076;18.208;2024-01-06T12:06:01;15.15;;;8.35;;
21705;SDS011;11014;53.076;18.208;2024-01-06T12:08:31;18.92;;;9.40;;
21705;SDS011;11014;53.076;18.208;2024-01-06T12:11:03;17.52;;;8.88;;
21705;SDS011;11014;53.076;18.208;2024-01-06T12:13:32;17.73;;;9.88;;
21705;SDS011;11014;53.076;18.208;2024-01-06T12:16:01;15.77;;;8.90;;
21705;SDS011;11014;53.076;18.208;2024-01-06T12:18:46;17.48;;;9.07;;
21705;SDS011;11014;53.076;18.208;2024-01-06T12:21:15;15.77;;;9.05;;
21705;SDS011;11014;53.076;18.208;2024-01-06T12:23:44;12.60;;;7.72;;
21705;SDS011;11014;53.076;18.208;2024-01-06T12:26:16;21.00;;;10.85;;
21705;SDS011;11014;53.076;18.208;2024-01-06T12:28:45;23.38;;;12.30;;
21705;SDS011;11014;53.076;18.208;2024-01-06T12:31:18;21.60;;;11.18;;
21705;SDS011;11014;53.076;18.208;2024-01-06T12:33:50;17.38;;;9.30;;
21705;SDS011;11014;53.076;18.208;2024-01-06T12:36:19;15.85;;;7.80;;
21705;SDS011;11014;53.076;18.208;2024-01-06T12:38:55;15.93;;;8.75;;
21705;SDS011;11014;53.076;18.208;2024-01-06T12:45:14;15.63;;;7.80;;
21705;SDS011;11014;53.076;18.208;2024-01-06T12:50:41;15.95;;;8.35;;
21705;SDS011;11014;53.076;18.208;2024-01-06T12:53:10;14.55;;;7.60;;
21705;SDS011;11014;53.076;18.208;2024-01-06T12:55:46;16.85;;;7.40;;
21705;SDS011;11014;53.076;18.208;2024-01-06T12:58:15;15.68;;;8.05;;
21705;SDS011;11014;53.076;18.208;2024-01-06T13:00:46;15.43;;;8.68;;
21705;SDS011;11014;53.076;18.208;2024-01-06T13:03:15;14.68;;;8.52;;
21705;SDS011;11014;53.076;18.208;2024-01-06T13:05:58;12.98;;;7.78;;
21705;SDS011;11014;53.076;18.208;2024-01-06T13:08:27;17.58;;;9.02;;
21705;SDS011;11014;53.076;18.208;2024-01-06T13:10:56;14.13;;;7.57;;
21705;SDS011;11014;53.076;18.208;2024-01-06T13:16:47;15.70;;;8.18;;
21705;SDS011;11014;53.076;18.208;2024-01-06T13:19:16;13.38;;;7.63;;
21705;SDS011;11014;53.076;18.208;2024-01-06T13:21:45;16.23;;;8.00;;
21705;SDS011;11014;53.076;18.208;2024-01-06T13:24:14;15.73;;;8.55;;
21705;SDS011;11014;53.076;18.208;2024-01-06T13:33:00;22.05;;;10.45;;
21705;SDS011;11014;53.076;18.208;2024-01-06T13:35:53;22.85;;;11.23;;
21705;SDS011;11014;53.076;18.208;2024-01-06T13:38:29;20.13;;;10.05;;
21705;SDS011;11014;53.076;18.208;2024-01-06T13:41:05;20.55;;;9.57;;
21705;SDS011;11014;53.076;18.208;2024-01-06T13:44:40;19.30;;;9.88;;
21705;SDS011;11014;53.076;18.208;2024-01-06T13:47:20;17.58;;;8.77;;
21705;SDS011;11014;53.076;18.208;2024-01-06T13:49:59;17.85;;;8.40;;
21705;SDS011;11014;53.076;18.208;2024-01-06T13:52:51;18.80;;;9.68;;
21705;SDS011;11014;53.076;18.208;2024-01-06T13:55:20;17.10;;;8.68;;
21705;SDS011;11014;53.076;18.208;2024-01-06T14:04:09;18.70;;;8.50;;
21705;SDS011;11014;53.076;18.208;2024-01-06T14:06:41;16.73;;;8.10;;
21705;SDS011;11014;53.076;18.208;2024-01-06T14:09:13;17.63;;;8.73;;
21705;SDS011;11014;53.076;18.208;2024-01-06T14:11:45;15.57;;;7.93;;
21705;SDS011;11014;53.076;18.208;2024-01-06T14:14:16;16.50;;;8.30;;
21705;SDS011;11014;53.076;18.208;2024-01-06T14:16:56;14.95;;;8.20;;
21705;SDS011;11014;53.076;18.208;2024-01-06T14:24:31;24.52;;;12.57;;
21705;SDS011;11014;53.076;18.208;2024-01-06T14:30:45;25.15;;;13.80;;
21705;SDS011;11014;53.076;18.208;2024-01-06T14:33:23;13.48;;;8.00;;
21705;SDS011;11014;53.076;18.208;2024-01-06T14:39:06;16.05;;;7.13;;
21705;SDS011;11014;53.076;18.208;2024-01-06T14:44:38;13.13;;;6.68;;
21705;SDS011;11014;53.076;18.208;2024-01-06T14:53:45;17.58;;;8.18;;
21705;SDS011;11014;53.076;18.208;2024-01-06T14:59:58;10.57;;;6.03;;
21705;SDS011;11014;53.076;18.208;2024-01-06T15:02:27;13.43;;;6.63;;
21705;SDS011;11014;53.076;18.208;2024-01-06T15:04:57;18.95;;;9.82;;
21705;SDS011;11014;53.076;18.208;2024-01-06T15:07:30;16.20;;;8.15;;
21705;SDS011;11014;53.076;18.208;2024-01-06T15:10:18;14.93;;;8.68;;
21705;SDS011;11014;53.076;18.208;2024-01-06T15:12:47;15.23;;;8.02;;
21705;SDS011;11014;53.076;18.208;2024-01-06T15:15:16;13.60;;;7.97;;
21705;SDS011;11014;53.076;18.208;2024-01-06T15:31:19;14.80;;;7.57;;
21705;SDS011;11014;53.076;18.208;2024-01-06T15:34:07;14.63;;;7.57;;
21705;SDS011;11014;53.076;18.208;2024-01-06T15:36:39;20.20;;;9.65;;
21705;SDS011;11014;53.076;18.208;2024-01-06T15:39:14;21.92;;;10.43;;
21705;SDS011;11014;53.076;18.208;2024-01-06T15:41:51;18.88;;;8.48;;
21705;SDS011;11014;53.076;18.208;2024-01-06T15:44:19;17.55;;;8.50;;
21705;SDS011;11014;53.076;18.208;2024-01-06T15:53:28;19.13;;;7.53;;
21705;SDS011;11014;53.076;18.208;2024-01-06T15:55:57;18.30;;;8.13;;
21705;SDS011;11014;53.076;18.208;2024-01-06T15:58:26;14.98;;;7.68;;
21705;SDS011;11014;53.076;18.208;2024-01-06T16:00:55;20.80;;;9.52;;
21705;SDS011;11014;53.076;18.208;2024-01-06T16:03:24;20.05;;;9.70;;
21705;SDS011;11014;53.076;18.208;2024-01-06T16:05:54;14.80;;;6.97;;
21705;SDS011;11014;53.076;18.208;2024-01-06T16:08:28;12.80;;;6.10;;
21705;SDS011;11014;53.076;18.208;2024-01-06T16:10:58;13.02;;;6.43;;
21705;SDS011;11014;53.076;18.208;2024-01-06T16:13:47;11.48;;;6.07;;
21705;SDS011;11014;53.076;18.208;2024-01-06T16:16:15;14.48;;;6.28;;
21705;SDS011;11014;53.076;18.208;2024-01-06T16:18:52;11.63;;;6.10;;
21705;SDS011;11014;53.076;18.208;2024-01-06T16:25:01;9.30;;;5.50;;
21705;SDS011;11014;53.076;18.208;2024-01-06T16:27:53;11.05;;;5.05;;
21705;SDS011;11014;53.076;18.208;2024-01-06T16:30:23;12.70;;;6.05;;
21705;SDS011;11014;53.076;18.208;2024-01-06T16:36:37;11.90;;;5.95;;